Terminal Aerodrome Forecast
Issued by NWS Jackson, KY

Home | Current Version | Previous Version | Text Only | Print | Product List | Glossary On
Versions: 1 2 3 4 5 6 7 8 9 10 11 12
000
FTUS43 KJKL 172300
TAFJKL
TAF
KJKL 172336Z 1800/1824 VRB03KT P6SM FEW040 SCT250
     FM180600 00000KT 6SM BR BKN080
     FM181000 00000KT 4SM BR FEW002 SCT080
     FM181400 VRB04KT P6SM SCT025 BKN050=

USA.gov is the U.S. government's official web portal to all federal, state and local government web resources and services.